Time;durP1;ratioP1;P1;durP2;ratioP2;P2;SDS_P1;SDS_P2;PMS_P1;PMS_P2;Temp;Humidity;BMP_temperature;BMP_pressure;BME280_temperature;BME280_humidity;BME280_pressure;Samples;Min_cycle;Max_cycle;Signal;HPM_P1;HPM_P2
2022/01/11 00:01:18;;;;;;;3.72;2.20;;;;;;;0.78;100.00;94327.53;5059157;28;20493;-53
2022/01/11 00:03:46;;;;;;;3.50;1.50;;;;;;;0.80;100.00;94325.56;5060712;28;20143;-51
2022/01/11 00:08:45;;;;;;;3.03;1.08;;;;;;;0.99;100.00;94333.63;5061671;28;20044;-53
2022/01/11 00:11:12;;;;;;;7.13;1.77;;;;;;;1.08;100.00;94337.66;5059813;28;20037;-51
2022/01/11 00:13:40;;;;;;;1.55;0.93;;;;;;;1.03;100.00;94340.00;5057029;28;20461;-52
2022/01/11 00:16:09;;;;;;;2.92;1.25;;;;;;;0.97;100.00;94345.84;5059526;28;20419;-52
2022/01/11 00:18:36;;;;;;;4.13;1.42;;;;;;;0.89;100.00;94341.63;5058382;28;20052;-55
2022/01/11 00:21:03;;;;;;;2.85;1.50;;;;;;;0.76;100.00;94350.00;5060394;28;20040;-55
2022/01/11 00:25:57;;;;;;;2.53;1.25;;;;;;;0.78;100.00;94355.72;5058935;28;20048;-53
2022/01/11 00:28:26;;;;;;;2.70;1.48;;;;;;;0.77;100.00;94351.56;5057587;28;20478;-54
2022/01/11 00:31:19;;;;;;;2.47;2.25;;;;;;;0.73;100.00;94351.13;5060003;28;20052;-51
2022/01/11 00:33:47;;;;;;;1.02;0.70;;;;;;;0.80;100.00;94356.34;5059510;28;20111;-55
2022/01/11 00:36:14;;;;;;;0.98;0.75;;;;;;;0.71;100.00;94365.91;5058308;28;20045;-54
2022/01/11 00:38:41;;;;;;;1.33;0.82;;;;;;;0.66;100.00;94341.78;5064510;28;20139;-53
2022/01/11 00:41:14;;;;;;;3.53;1.90;;;;;;;0.78;100.00;94363.41;5057213;28;20565;-52
2022/01/11 00:43:42;;;;;;;1.75;0.90;;;;;;;0.79;100.00;94362.44;5057549;28;20040;-54
2022/01/11 00:46:10;;;;;;;1.80;0.85;;;;;;;0.78;100.00;94368.53;5060404;28;20114;-50
2022/01/11 00:48:40;;;;;;;1.75;0.80;;;;;;;0.77;100.00;94366.94;5060427;28;20094;-50
2022/01/11 00:51:09;;;;;;;2.30;1.40;;;;;;;0.86;100.00;94373.53;5060314;28;20067;-55
2022/01/11 00:53:38;;;;;;;1.88;1.38;;;;;;;0.80;100.00;94369.16;5058744;28;20032;-50
2022/01/11 00:56:05;;;;;;;1.98;0.82;;;;;;;0.91;100.00;94373.81;5058504;28;20036;-53
2022/01/11 00:58:32;;;;;;;0.93;0.70;;;;;;;0.98;100.00;94384.13;5061077;28;20048;-50
2022/01/11 01:00:59;;;;;;;3.60;1.17;;;;;;;1.01;100.00;94393.22;5057896;28;20037;-55
2022/01/11 01:03:26;;;;;;;3.50;1.40;;;;;;;1.03;100.00;94388.72;5059261;28;20429;-53
2022/01/11 01:05:54;;;;;;;2.60;1.33;;;;;;;1.08;100.00;94388.94;5059160;28;20098;-55
2022/01/11 01:08:23;;;;;;;2.85;1.20;;;;;;;1.13;100.00;94391.75;5059926;28;20048;-50
2022/01/11 01:10:50;;;;;;;1.30;0.70;;;;;;;1.23;100.00;94392.25;5058505;28;20489;-51
2022/01/11 01:13:23;;;;;;;2.28;1.08;;;;;;;1.22;100.00;94390.66;5059867;28;20052;-53
2022/01/11 01:15:57;;;;;;;2.20;1.45;;;;;;;1.12;100.00;94374.81;5056713;28;20147;-54
2022/01/11 01:18:37;;;;;;;3.15;1.98;;;;;;;1.34;100.00;94390.97;5054462;28;20056;-49
2022/01/11 01:21:04;;;;;;;2.10;1.80;;;;;;;1.29;100.00;94391.50;5061609;28;20831;-50
2022/01/11 01:23:32;;;;;;;2.10;1.60;;;;;;;1.36;100.00;94396.72;5062367;28;20510;-51
2022/01/11 01:26:01;;;;;;;1.48;1.00;;;;;;;1.36;100.00;94401.06;5065017;28;20045;-53
2022/01/11 01:28:28;;;;;;;1.55;1.30;;;;;;;1.33;100.00;94397.88;5061029;28;20110;-50
2022/01/11 01:31:00;;;;;;;1.17;0.93;;;;;;;1.29;100.00;94395.88;5060923;28;20091;-55
2022/01/11 01:33:30;;;;;;;2.63;1.55;;;;;;;1.19;100.00;94396.19;5064604;28;20060;-52
2022/01/11 01:36:01;;;;;;;2.88;1.25;;;;;;;1.25;100.00;94405.69;5063495;28;20036;-52
2022/01/11 01:38:30;;;;;;;1.67;1.20;;;;;;;1.25;100.00;94405.69;5061876;28;20072;-50
2022/01/11 01:41:04;;;;;;;1.60;1.40;;;;;;;1.31;100.00;94410.13;5060911;28;20068;-50
2022/01/11 01:43:31;;;;;;;1.60;1.00;;;;;;;1.30;100.00;94408.50;5062283;28;20050;-54
2022/01/11 01:46:00;;;;;;;2.90;1.70;;;;;;;1.25;100.00;94415.97;5062551;28;20036;-55
2022/01/11 01:48:28;;;;;;;2.42;1.45;;;;;;;1.29;100.00;94406.13;5062796;28;20109;-51
2022/01/11 01:50:56;;;;;;;3.40;1.15;;;;;;;1.24;100.00;94404.13;5061158;28;20057;-50
2022/01/11 01:53:23;;;;;;;5.80;2.33;;;;;;;1.08;100.00;94415.41;5066184;28;20151;-54
2022/01/11 01:55:50;;;;;;;1.00;0.77;;;;;;;1.06;100.00;94408.88;5061746;28;20609;-52
2022/01/11 01:58:17;;;;;;;2.67;1.95;;;;;;;1.06;100.00;94406.28;5060800;28;20041;-50
2022/01/11 02:00:51;;;;;;;3.05;1.30;;;;;;;1.04;100.00;94410.81;5068210;28;20102;-51
2022/01/11 02:03:25;;;;;;;1.90;1.25;;;;;;;0.66;100.00;94370.00;5061449;28;20048;-53
2022/01/11 02:05:54;;;;;;;1.33;0.88;;;;;;;0.94;100.00;94411.91;5061568;28;20312;-54
2022/01/11 02:08:23;;;;;;;0.35;0.32;;;;;;;0.71;100.00;94411.25;5062062;28;20149;-51
2022/01/11 02:10:52;;;;;;;1.33;0.88;;;;;;;0.67;100.00;94421.06;5059912;28;20760;-51
2022/01/11 02:13:19;;;;;;;0.30;0.25;;;;;;;0.65;100.00;94419.66;5061669;28;20052;-53
2022/01/11 02:15:46;;;;;;;1.45;1.25;;;;;;;0.68;100.00;94425.22;5097850;28;20079;-51
2022/01/11 02:18:15;;;;;;;0.95;0.55;;;;;;;0.68;100.00;94425.22;5063867;28;20234;-51
2022/01/11 02:20:45;;;;;;;2.90;1.15;;;;;;;0.73;100.00;94427.25;5064221;28;20055;-53
2022/01/11 02:23:20;;;;;;;1.48;1.25;;;;;;;0.72;100.00;94428.22;5064501;28;20142;-50
2022/01/11 02:25:48;;;;;;;1.33;1.15;;;;;;;0.70;100.00;94433.53;5100349;27;20502;-52
2022/01/11 02:28:18;;;;;;;3.13;1.20;;;;;;;0.66;100.00;94444.31;5069022;28;20056;-53
2022/01/11 02:30:47;;;;;;;2.70;2.08;;;;;;;0.63;100.00;94442.09;5069262;28;20622;-50
2022/01/11 02:33:32;;;;;;;2.55;1.33;;;;;;;0.60;100.00;94437.34;5063890;28;20055;-54
2022/01/11 02:36:36;;;;;;;2.20;1.08;;;;;;;0.53;100.00;94439.84;5031758;28;20063;-53
2022/01/11 02:39:23;;;;;;;1.08;0.98;;;;;;;0.44;100.00;94434.00;5064098;28;20540;-54
2022/01/11 02:41:57;;;;;;;1.40;0.85;;;;;;;0.47;100.00;94443.91;5065107;28;20119;-54
2022/01/11 02:44:32;;;;;;;2.15;1.38;;;;;;;0.46;100.00;94452.56;5064835;28;20441;-53
2022/01/11 02:46:59;;;;;;;3.22;1.70;;;;;;;0.40;100.00;94445.59;5063589;28;20136;-54
2022/01/11 02:49:31;;;;;;;2.20;1.73;;;;;;;0.40;100.00;94450.72;5063647;28;20037;-54
2022/01/11 02:52:04;;;;;;;7.90;2.35;;;;;;;0.39;100.00;94451.66;5063485;28;20510;-54
2022/01/11 02:54:32;;;;;;;2.10;1.40;;;;;;;0.34;100.00;94454.78;5067255;28;20742;-50
2022/01/11 02:57:10;;;;;;;3.53;1.77;;;;;;;0.37;100.00;94463.88;5067233;28;20045;-54
2022/01/11 02:59:37;;;;;;;10.32;3.13;;;;;;;0.33;100.00;94460.06;5063517;28;20086;-52
2022/01/11 03:02:04;;;;;;;4.00;2.30;;;;;;;0.37;100.00;94448.50;5066388;28;20103;-52
2022/01/11 03:04:33;;;;;;;11.50;3.22;;;;;;;0.45;100.00;94461.22;5067237;28;20076;-53
2022/01/11 03:07:01;;;;;;;4.25;2.55;;;;;;;0.44;100.00;94462.19;5072186;28;20059;-51
2022/01/11 03:09:44;;;;;;;5.30;2.63;;;;;;;0.47;100.00;94461.84;5063288;28;20063;-54
2022/01/11 03:12:12;;;;;;;3.83;1.92;;;;;;;0.54;100.00;94454.22;5061695;28;20052;-51
2022/01/11 03:14:39;;;;;;;11.27;2.92;;;;;;;0.60;100.00;94457.88;5063028;28;20121;-51
2022/01/11 03:17:07;;;;;;;2.88;2.05;;;;;;;0.49;100.00;94470.13;5064718;28;20067;-51
2022/01/11 03:19:34;;;;;;;3.42;2.78;;;;;;;0.52;100.00;94472.34;5063063;28;20131;-52
2022/01/11 03:22:02;;;;;;;4.38;3.33;;;;;;;0.55;100.00;94474.53;5063242;28;20049;-50
2022/01/11 03:24:29;;;;;;;22.15;9.55;;;;;;;0.57;100.00;94470.03;5064921;28;20041;-51
2022/01/11 03:26:56;;;;;;;14.30;7.65;;;;;;;0.59;100.00;94463.94;5063508;28;20058;-53
2022/01/11 03:29:23;;;;;;;13.93;7.07;;;;;;;0.51;100.00;94470.75;5063970;28;20044;-53
2022/01/11 03:31:51;;;;;;;10.27;4.15;;;;;;;0.61;100.00;94469.69;5063184;28;20456;-54
2022/01/11 03:34:19;;;;;;;4.38;2.30;;;;;;;0.60;100.00;94473.25;5063073;28;20126;-54
2022/01/11 03:36:47;;;;;;;5.85;2.85;;;;;;;0.55;100.00;94468.63;5061755;28;20123;-51
2022/01/11 03:39:14;;;;;;;8.13;3.70;;;;;;;0.59;100.00;94461.38;5064248;28;20578;-54
2022/01/11 03:41:41;;;;;;;4.43;2.45;;;;;;;0.68;100.00;94475.69;5071671;28;20490;-53
2022/01/11 03:44:08;;;;;;;6.72;2.35;;;;;;;0.49;100.00;94472.69;5063555;28;20495;-53
2022/01/11 03:46:35;;;;;;;6.90;2.33;;;;;;;0.54;100.00;94480.66;5063936;28;20464;-54
2022/01/11 03:49:02;;;;;;;6.78;2.78;;;;;;;0.46;100.00;94475.59;5061974;28;20045;-50
2022/01/11 03:51:33;;;;;;;4.43;2.53;;;;;;;0.52;100.00;94487.72;5048064;28;20395;-51
2022/01/11 03:54:12;;;;;;;3.78;2.28;;;;;;;0.46;100.00;94487.63;5068193;28;20041;-51
2022/01/11 03:56:58;;;;;;;3.80;2.70;;;;;;;0.43;100.00;94488.75;5062953;28;20106;-52
2022/01/11 03:59:30;;;;;;;4.22;2.20;;;;;;;0.40;100.00;94484.00;5062625;28;20045;-51
2022/01/11 04:01:56;;;;;;;4.72;2.70;;;;;;;0.41;100.00;94495.06;5066452;28;20043;-51
2022/01/11 04:04:24;;;;;;;4.75;2.50;;;;;;;0.45;100.00;94491.16;5063068;28;20048;-52
2022/01/11 04:06:51;;;;;;;3.90;2.25;;;;;;;0.46;100.00;94497.88;5061941;28;20420;-50
2022/01/11 04:09:18;;;;;;;2.53;1.98;;;;;;;0.40;100.00;94491.69;5061894;28;20123;-52
2022/01/11 04:11:45;;;;;;;2.47;2.10;;;;;;;0.31;100.00;94495.31;5061852;28;20049;-54
2022/01/11 04:14:11;;;;;;;5.13;2.78;;;;;;;0.24;100.00;94499.56;5063344;28;20040;-51
2022/01/11 04:16:38;;;;;;;1.58;1.15;;;;;;;0.07;100.00;94504.81;5063390;28;20048;-52
2022/01/11 04:19:08;;;;;;;2.53;1.90;;;;;;;0.07;100.00;94509.91;5067466;28;20844;-51
2022/01/11 04:21:37;;;;;;;4.72;2.47;;;;;;;0.08;100.00;94519.22;5062709;28;20098;-51
2022/01/11 04:24:04;;;;;;;4.45;2.13;;;;;;;0.10;100.00;94517.25;5062197;28;20131;-50
2022/01/11 04:26:31;;;;;;;2.83;1.75;;;;;;;0.15;100.00;94522.66;5063579;28;20043;-51
2022/01/11 04:29:03;;;;;;;2.50;1.27;;;;;;;0.07;100.00;94530.41;5062139;28;20036;-50
2022/01/11 04:31:30;;;;;;;4.53;2.25;;;;;;;0.00;100.00;94519.28;5061795;28;20134;-53
2022/01/11 04:34:03;;;;;;;4.35;3.40;;;;;;;0.05;100.00;94527.22;5067216;28;20123;-51
2022/01/11 04:36:30;;;;;;;4.30;2.92;;;;;;;0.10;100.00;94540.31;5060667;28;20044;-52
2022/01/11 04:38:57;;;;;;;4.68;3.25;;;;;;;0.17;100.00;94527.63;5066264;28;20132;-50
2022/01/11 04:41:24;;;;;;;5.18;2.13;;;;;;;0.11;100.00;94541.91;5063721;28;20058;-51
2022/01/11 04:43:51;;;;;;;6.25;3.67;;;;;;;0.14;100.00;94541.56;5067054;28;20039;-49
2022/01/11 04:46:19;;;;;;;6.70;2.95;;;;;;;0.18;100.00;94547.94;5062535;28;20041;-50
2022/01/11 04:48:54;;;;;;;9.50;3.35;;;;;;;0.25;100.00;94544.69;5061195;28;20410;-51
2022/01/11 04:51:22;;;;;;;5.45;3.35;;;;;;;0.35;100.00;94547.78;5061509;28;20090;-53
2022/01/11 04:53:49;;;;;;;5.43;3.08;;;;;;;0.29;100.00;94538.22;5067944;28;20131;-51
2022/01/11 04:56:18;;;;;;;5.88;3.45;;;;;;;0.43;100.00;94555.38;5064080;28;20521;-51
2022/01/11 04:58:45;;;;;;;5.47;2.90;;;;;;;0.49;100.00;94549.59;5066044;28;20107;-51
2022/01/11 05:01:12;;;;;;;2.95;1.95;;;;;;;0.48;100.00;94552.31;5064959;28;20144;-53
2022/01/11 05:03:41;;;;;;;3.65;1.63;;;;;;;0.37;100.00;94556.09;5060704;28;20047;-52
2022/01/11 05:06:08;;;;;;;4.75;2.72;;;;;;;0.28;100.00;94557.16;5062672;28;20052;-51
2022/01/11 05:08:37;;;;;;;11.88;7.00;;;;;;;0.27;100.00;94565.78;5060836;28;20036;-55
2022/01/11 05:11:06;;;;;;;4.97;2.33;;;;;;;0.19;100.00;94570.00;5062284;28;20055;-52
2022/01/11 05:13:34;;;;;;;9.40;4.50;;;;;;;0.28;100.00;94568.19;5062851;28;20045;-51
2022/01/11 05:16:08;;;;;;;41.50;18.33;;;;;;;0.40;100.00;94581.38;5061007;28;20051;-53
2022/01/11 05:18:37;;;;;;;30.15;16.20;;;;;;;0.30;100.00;94560.31;5062386;28;20060;-49
2022/01/11 05:21:04;;;;;;;16.00;9.85;;;;;;;0.43;100.00;94573.31;5061897;28;20286;-51
2022/01/11 05:23:32;;;;;;;37.55;13.95;;;;;;;0.59;100.00;94574.94;5060394;28;20049;-54
2022/01/11 05:26:01;;;;;;;31.65;13.90;;;;;;;0.66;100.00;94575.03;5061206;28;20536;-50
2022/01/11 05:28:29;;;;;;;15.27;6.53;;;;;;;0.72;100.00;94579.47;5067466;28;20603;-54
2022/01/11 05:30:56;;;;;;;13.80;5.30;;;;;;;0.76;100.00;94585.84;5064490;28;20062;-50
2022/01/11 05:33:23;;;;;;;10.55;4.57;;;;;;;0.86;100.00;94585.56;5064400;28;20047;-53
2022/01/11 05:35:50;;;;;;;50.17;25.13;;;;;;;0.80;100.00;94589.63;5065725;28;20044;-51
2022/01/11 05:38:17;;;;;;;10.32;5.70;;;;;;;0.68;100.00;94588.47;5069918;28;20408;-52
2022/01/11 05:40:44;;;;;;;4.10;2.38;;;;;;;0.68;100.00;94603.84;5060282;28;20054;-52
2022/01/11 05:43:12;;;;;;;8.77;4.25;;;;;;;0.51;100.00;94592.97;5060617;28;20056;-50
2022/01/11 05:45:40;;;;;;;8.48;5.10;;;;;;;0.27;100.00;94581.97;5064719;28;20059;-50
2022/01/11 05:48:07;;;;;;;27.23;12.65;;;;;;;0.48;100.00;94601.78;5063826;28;20144;-50
2022/01/11 05:50:38;;;;;;;13.48;7.57;;;;;;;0.52;100.00;94615.88;5067733;28;20048;-51
2022/01/11 05:53:07;;;;;;;43.25;15.43;;;;;;;0.60;100.00;94607.31;5068218;28;20048;-53
2022/01/11 05:55:34;;;;;;;25.90;12.98;;;;;;;0.70;100.00;94607.84;5065377;28;20064;-51
2022/01/11 05:58:02;;;;;;;33.15;13.57;;;;;;;0.83;100.00;94617.50;5065535;28;20040;-51
2022/01/11 06:00:30;;;;;;;54.38;23.23;;;;;;;0.78;100.00;94604.41;5064853;28;20182;-52
2022/01/11 06:02:58;;;;;;;51.50;19.85;;;;;;;0.74;100.00;94613.44;5064152;28;20079;-53
2022/01/11 06:05:38;;;;;;;65.63;31.20;;;;;;;0.57;100.00;94623.81;5064223;28;20048;-53
2022/01/11 06:08:08;;;;;;;38.60;20.20;;;;;;;0.64;100.00;94623.13;5068885;28;20102;-50
2022/01/11 06:10:36;;;;;;;30.15;16.02;;;;;;;0.74;100.00;94636.50;5064288;28;20061;-50
2022/01/11 06:13:03;;;;;;;16.55;9.52;;;;;;;0.56;100.00;94639.38;5063470;28;20044;-54
2022/01/11 06:15:31;;;;;;;14.07;7.03;;;;;;;0.65;100.00;94645.22;5063253;28;20044;-50
2022/01/11 06:18:00;;;;;;;50.05;25.20;;;;;;;0.47;100.00;94648.91;5063720;28;20101;-54
2022/01/11 06:20:28;;;;;;;9.93;6.63;;;;;;;0.59;100.00;94648.47;5066672;28;20044;-54
2022/01/11 06:22:57;;;;;;;8.82;5.47;;;;;;;0.66;100.00;94657.06;5064435;28;20575;-51
2022/01/11 06:25:25;;;;;;;12.95;6.05;;;;;;;0.71;100.00;94665.03;5064193;28;20044;-52
2022/01/11 06:27:53;;;;;;;11.00;5.22;;;;;;;0.81;100.00;94672.47;5070735;28;20055;-53
2022/01/11 06:30:21;;;;;;;25.25;13.02;;;;;;;0.89;100.00;94672.41;5062864;28;20059;-54
2022/01/11 06:32:48;;;;;;;7.68;4.13;;;;;;;0.74;100.00;94670.63;5063713;28;20052;-51
2022/01/11 06:35:18;;;;;;;26.85;15.70;;;;;;;0.78;100.00;94678.75;5062443;28;20044;-52
2022/01/11 06:37:50;;;;;;;17.67;10.93;;;;;;;0.74;100.00;94672.38;5063926;28;20495;-51
2022/01/11 06:40:20;;;;;;;31.42;14.13;;;;;;;0.68;100.00;94681.53;5062768;28;20052;-52
2022/01/11 06:42:53;;;;;;;16.23;10.15;;;;;;;0.73;100.00;94673.34;5063951;28;20033;-52
2022/01/11 06:45:22;;;;;;;34.83;15.48;;;;;;;0.73;100.00;94686.16;5064695;28;20134;-54
2022/01/11 06:47:53;;;;;;;23.42;11.57;;;;;;;0.78;100.00;94681.31;5066282;28;20048;-51
2022/01/11 06:50:21;;;;;;;26.45;16.17;;;;;;;0.68;100.00;94681.53;5067699;28;20048;-51
2022/01/11 06:52:48;;;;;;;11.30;7.15;;;;;;;0.62;100.00;94687.38;5067062;28;20083;-50
2022/01/11 06:55:17;;;;;;;13.10;8.38;;;;;;;0.72;100.00;94687.13;5066726;28;20068;-53
2022/01/11 06:57:44;;;;;;;15.05;7.50;;;;;;;0.78;100.00;94696.69;5065835;28;20036;-51
2022/01/11 07:00:12;;;;;;;18.05;7.38;;;;;;;0.88;100.00;94702.41;5060730;28;20518;-52
2022/01/11 07:02:44;;;;;;;10.85;6.38;;;;;;;0.93;100.00;94694.94;5057791;28;20120;-50
2022/01/11 07:05:35;;;;;;;12.52;5.80;;;;;;;1.06;100.00;94703.81;5030801;28;20426;-52
2022/01/11 07:08:02;;;;;;;11.15;5.15;;;;;;;1.10;100.00;94705.09;5093885;27;20048;-50
2022/01/11 07:10:29;;;;;;;15.23;5.93;;;;;;;1.20;100.00;94715.88;5057991;28;20059;-53
2022/01/11 07:12:57;;;;;;;18.05;8.10;;;;;;;1.29;100.00;94714.81;5060047;28;20567;-49
2022/01/11 07:15:24;;;;;;;21.95;8.27;;;;;;;1.40;100.00;94725.63;5060993;28;20057;-52
2022/01/11 07:17:52;;;;;;;16.48;7.63;;;;;;;1.41;100.00;94722.88;5095789;27;20067;-53
2022/01/11 07:20:19;;;;;;;10.60;5.43;;;;;;;1.54;100.00;94742.78;5062223;28;20627;-51
2022/01/11 07:22:47;;;;;;;9.55;4.88;;;;;;;1.57;100.00;94737.31;5068685;28;20040;-50
2022/01/11 07:25:15;;;;;;;6.40;3.97;;;;;;;1.60;100.00;94744.66;5064184;28;20052;-50
2022/01/11 07:27:44;;;;;;;19.73;9.63;;;;;;;1.54;100.00;94742.78;5064956;28;20076;-50
2022/01/11 07:30:12;;;;;;;73.30;31.33;;;;;;;1.62;100.00;94745.28;5060805;28;20643;-50
2022/01/11 07:32:46;;;;;;;29.77;19.55;;;;;;;1.56;100.00;94740.06;5096179;27;20453;-53
2022/01/11 07:35:12;;;;;;;40.88;24.20;;;;;;;1.38;100.00;94748.09;5068214;28;20114;-53
2022/01/11 07:37:43;;;;;;;16.33;9.52;;;;;;;1.21;100.00;94753.41;5061686;28;20048;-49
2022/01/11 07:40:12;;;;;;;29.80;16.42;;;;;;;1.06;100.00;94739.72;5059892;28;20044;-50
2022/01/11 07:42:44;;;;;;;34.55;17.33;;;;;;;1.04;100.00;94736.53;5061243;28;20068;-52
2022/01/11 07:45:27;;;;;;;36.13;18.25;;;;;;;1.17;100.00;94757.28;5061302;28;20048;-50
2022/01/11 07:47:55;;;;;;;52.13;26.70;;;;;;;1.32;100.00;94765.00;5064638;28;20040;-51
2022/01/11 07:50:23;;;;;;;45.13;20.65;;;;;;;1.28;100.00;94771.47;5061494;28;20040;-51
2022/01/11 07:52:51;;;;;;;25.98;15.52;;;;;;;1.28;100.00;94774.81;5063457;28;20136;-52
2022/01/11 07:55:19;;;;;;;14.07;6.40;;;;;;;1.20;100.00;94766.38;5061805;28;20072;-55
2022/01/11 07:57:46;;;;;;;14.30;7.60;;;;;;;1.17;100.00;94772.69;5061943;28;20052;-51
2022/01/11 08:00:14;;;;;;;20.23;8.07;;;;;;;1.24;100.00;94767.63;5061511;28;20387;-53
2022/01/11 08:02:41;;;;;;;14.60;7.40;;;;;;;1.02;100.00;94769.28;5066346;28;20106;-54
2022/01/11 08:05:21;;;;;;;21.10;12.27;;;;;;;1.03;100.00;94787.06;5062445;28;20052;-52
2022/01/11 08:07:50;;;;;;;20.45;10.85;;;;;;;1.11;100.00;94786.19;5062761;28;20048;-54
2022/01/11 08:10:23;;;;;;;15.75;9.70;;;;;;;1.22;100.00;94792.66;5064627;28;20182;-54
2022/01/11 08:12:51;;;;;;;16.15;9.35;;;;;;;1.14;100.00;94778.16;5084665;28;20056;-52
2022/01/11 08:15:19;;;;;;;10.95;6.00;;;;;;;0.88;100.00;94784.44;5058154;28;20048;-49
2022/01/11 08:17:47;;;;;;;14.30;6.68;;;;;;;1.02;100.00;94790.56;5060136;28;20053;-52
2022/01/11 08:20:17;;;;;;;7.10;3.72;;;;;;;0.84;100.00;94788.31;5060208;28;20048;-53
2022/01/11 08:22:48;;;;;;;17.92;8.18;;;;;;;0.70;100.00;94797.56;5056444;28;20048;-53
2022/01/11 08:25:16;;;;;;;88.40;30.08;;;;;;;0.76;100.00;94801.19;5059221;28;20127;-55
2022/01/11 08:27:43;;;;;;;233.15;62.53;;;;;;;0.83;100.00;94809.81;5057150;28;20135;-50
2022/01/11 08:30:11;;;;;;;78.78;34.45;;;;;;;0.59;100.00;94790.22;5054311;28;20509;-51
2022/01/11 08:32:42;;;;;;;24.85;14.45;;;;;;;0.55;100.00;94805.16;5060146;28;20051;-50
2022/01/11 08:35:10;;;;;;;28.27;16.42;;;;;;;0.68;100.00;94798.69;5045719;28;20482;-49
2022/01/11 08:37:38;;;;;;;20.95;12.45;;;;;;;0.65;100.00;94799.00;5055978;28;20062;-51
2022/01/11 08:40:06;;;;;;;27.40;17.42;;;;;;;0.60;100.00;94811.56;5061565;28;20139;-49
2022/01/11 08:42:34;;;;;;;19.38;9.98;;;;;;;0.45;100.00;94814.84;5062645;28;20053;-53
2022/01/11 08:45:04;;;;;;;7.22;5.55;;;;;;;0.27;100.00;94804.03;5064788;28;20087;-52
2022/01/11 08:47:35;;;;;;;28.35;14.88;;;;;;;0.33;100.00;94816.97;5060925;28;20185;-54
2022/01/11 08:50:05;;;;;;;24.60;14.07;;;;;;;0.35;100.00;94819.38;5065128;28;20101;-52
2022/01/11 08:52:42;;;;;;;20.38;11.88;;;;;;;0.37;100.00;94832.81;5059444;28;20040;-50
2022/01/11 08:55:13;;;;;;;17.90;9.02;;;;;;;0.43;100.00;94832.13;5062764;28;20126;-54
2022/01/11 08:57:41;;;;;;;9.85;5.80;;;;;;;0.31;100.00;94823.25;5058703;28;20051;-50
2022/01/11 09:00:16;;;;;;;15.10;9.15;;;;;;;0.32;100.00;94835.06;5065309;28;20426;-52
2022/01/11 09:02:54;;;;;;;28.58;17.10;;;;;;;0.39;100.00;94841.13;5064498;28;20126;-53
2022/01/11 09:05:23;;;;;;;10.90;7.68;;;;;;;0.42;100.00;94855.38;5054322;28;20498;-50
2022/01/11 09:07:56;;;;;;;4.93;3.97;;;;;;;0.38;100.00;94845.44;5060404;28;20039;-52
2022/01/11 09:10:24;;;;;;;14.30;3.33;;;;;;;0.18;100.00;94845.06;5063106;28;20557;-51
2022/01/11 09:12:51;;;;;;;5.53;3.28;;;;;;;0.04;100.00;94838.06;5061385;28;20593;-53
2022/01/11 09:15:19;;;;;;;13.95;7.25;;;;;;;-0.01;100.00;94840.31;5056304;28;20110;-51
2022/01/11 09:17:46;;;;;;;3.30;1.83;;;;;;;-0.11;100.00;94852.50;5089969;28;20052;-54
2022/01/11 09:20:14;;;;;;;5.65;2.92;;;;;;;-0.28;100.00;94829.50;5057623;28;20043;-53
2022/01/11 09:22:41;;;;;;;6.60;3.08;;;;;;;-0.17;100.00;94841.16;5058144;28;20052;-55
2022/01/11 09:25:11;;;;;;;9.60;5.30;;;;;;;-0.08;100.00;94844.50;5060514;28;20090;-50
2022/01/11 09:27:47;;;;;;;17.02;6.95;;;;;;;-0.04;100.00;94850.88;5073118;28;20045;-53
2022/01/11 09:30:15;;;;;;;7.65;4.55;;;;;;;0.01;100.00;94840.94;5095556;28;20533;-52
2022/01/11 09:32:45;;;;;;;9.35;3.95;;;;;;;0.21;100.00;94849.03;5061610;28;20407;-51
2022/01/11 09:35:13;;;;;;;6.28;3.50;;;;;;;0.17;100.00;94853.69;5057815;28;20135;-50
2022/01/11 09:37:46;;;;;;;3.35;2.53;;;;;;;0.14;100.00;94854.00;5061472;28;20056;-54
2022/01/11 09:40:13;;;;;;;4.88;2.63;;;;;;;0.12;100.00;94850.81;5061359;28;20426;-49
2022/01/11 09:42:43;;;;;;;3.55;2.78;;;;;;;0.25;100.00;94862.31;5070653;28;20726;-51
2022/01/11 09:45:13;;;;;;;9.15;5.80;;;;;;;0.30;100.00;94862.63;5057196;28;20044;-50
2022/01/11 09:47:46;;;;;;;6.10;2.90;;;;;;;0.28;100.00;94849.19;5061302;28;20053;-54
2022/01/11 09:50:17;;;;;;;16.10;4.90;;;;;;;0.52;100.00;94856.78;5057116;28;20135;-51
2022/01/11 09:52:54;;;;;;;8.13;4.07;;;;;;;0.66;100.00;94862.94;5055743;28;20041;-53
2022/01/11 09:55:24;;;;;;;9.35;6.20;;;;;;;0.87;100.00;94864.91;5058971;28;20068;-50
2022/01/11 09:57:51;;;;;;;13.05;5.82;;;;;;;1.01;100.00;94860.00;5052488;28;20076;-49
2022/01/11 10:00:49;;;;;;;12.07;5.82;;;;;;;0.97;100.00;94869.00;5034447;28;20144;-54
2022/01/11 10:04:05;;;;;;;4.07;3.03;;;;;;;1.01;100.00;94870.25;5060446;28;20059;-51
2022/01/11 10:07:01;;;;;;;8.48;4.00;;;;;;;1.03;100.00;94868.34;5067209;28;20048;-51
2022/01/11 10:09:30;;;;;;;11.73;6.47;;;;;;;1.05;100.00;94874.09;5080312;28;20041;-53
2022/01/11 10:12:07;;;;;;;5.22;3.25;;;;;;;1.08;100.00;94866.84;5058636;28;20075;-53
2022/01/11 10:14:37;;;;;;;5.13;2.70;;;;;;;0.97;100.00;94871.56;5057186;28;20073;-51
2022/01/11 10:17:19;;;;;;;5.60;2.90;;;;;;;1.02;100.00;94867.53;5061441;28;20479;-53
2022/01/11 10:20:14;;;;;;;5.55;3.05;;;;;;;0.98;100.00;94870.63;5062111;28;20044;-51
2022/01/11 10:23:05;;;;;;;5.25;2.63;;;;;;;0.92;100.00;94877.22;5061085;28;20430;-54
2022/01/11 10:25:43;;;;;;;7.15;3.85;;;;;;;0.83;100.00;94868.78;5060901;28;20059;-50
2022/01/11 10:28:11;;;;;;;5.05;3.13;;;;;;;0.83;100.00;94881.59;5067097;28;20048;-52
2022/01/11 10:30:41;;;;;;;8.20;3.65;;;;;;;0.62;100.00;94873.69;5059741;28;20052;-52
2022/01/11 10:33:09;;;;;;;3.97;1.98;;;;;;;0.55;100.00;94861.53;5058891;28;20081;-55
2022/01/11 10:35:44;;;;;;;3.17;1.92;;;;;;;0.74;100.00;94880.06;5067399;28;20045;-51
2022/01/11 10:38:30;;;;;;;5.07;4.00;;;;;;;0.81;100.00;94870.72;5058325;28;20125;-52
2022/01/11 10:41:05;;;;;;;6.15;4.03;;;;;;;0.77;100.00;94877.13;5064146;28;20049;-51
2022/01/11 10:43:42;;;;;;;5.32;2.88;;;;;;;0.84;100.00;94880.63;5062445;28;20045;-50
2022/01/11 10:46:13;;;;;;;3.03;1.83;;;;;;;0.89;100.00;94872.44;5062309;28;20067;-51
2022/01/11 10:48:44;;;;;;;6.43;3.65;;;;;;;0.84;96.66;94870.34;5069664;28;20048;-51
2022/01/11 10:51:14;;;;;;;3.78;2.35;;;;;;;0.92;100.00;94872.88;5064999;28;22427;-54
2022/01/11 10:53:48;;;;;;;1.45;0.77;;;;;;;1.03;100.00;94868.34;5068349;28;20044;-54
2022/01/11 10:56:18;;;;;;;13.10;5.53;;;;;;;1.07;96.47;94864.47;5063819;28;20048;-51
2022/01/11 10:59:09;;;;;;;1.80;1.48;;;;;;;1.14;96.46;94865.38;5062347;28;20051;-51
2022/01/11 11:01:44;;;;;;;1.67;1.15;;;;;;;1.14;93.63;94867.94;5064963;28;20135;-52
2022/01/11 11:04:32;;;;;;;1.73;1.00;;;;;;;1.26;93.94;94864.00;5063879;28;20490;-53
2022/01/11 11:07:15;;;;;;;3.55;1.55;;;;;;;1.26;94.09;94858.88;5064108;28;20054;-53
2022/01/11 11:10:01;;;;;;;2.38;1.33;;;;;;;1.39;92.75;94862.59;5063891;28;20044;-54
2022/01/11 11:12:28;;;;;;;1.85;0.93;;;;;;;1.49;94.09;94870.88;5063297;28;20052;-51
2022/01/11 11:14:59;;;;;;;2.60;0.90;;;;;;;1.53;90.77;94865.22;5063540;28;20060;-51
2022/01/11 11:17:39;;;;;;;19.92;6.35;;;;;;;1.49;90.23;94868.31;5064008;28;20134;-51
2022/01/11 11:20:26;;;;;;;4.15;2.17;;;;;;;1.12;89.51;94862.19;5059637;28;20122;-50
2022/01/11 11:22:53;;;;;;;1.40;0.90;;;;;;;0.91;87.58;94866.16;5065134;28;20453;-53
2022/01/11 11:25:20;;;;;;;2.05;1.45;;;;;;;0.77;93.44;94854.06;5065576;28;20050;-53
2022/01/11 11:27:48;;;;;;;1.88;1.13;;;;;;;0.80;94.50;94869.09;5065216;28;20059;-54
2022/01/11 11:30:16;;;;;;;11.23;3.72;;;;;;;0.90;93.77;94874.81;5063892;28;20422;-49
2022/01/11 11:32:46;;;;;;;22.38;8.35;;;;;;;1.09;94.80;94873.56;5064311;28;20048;-54
2022/01/11 11:35:16;;;;;;;10.48;5.43;;;;;;;1.19;93.61;94873.34;5064059;28;20514;-50
2022/01/11 11:37:46;;;;;;;2.17;1.42;;;;;;;1.32;93.76;94873.56;5063690;28;20559;-49
2022/01/11 11:40:18;;;;;;;3.78;2.10;;;;;;;1.34;90.50;94876.75;5069772;28;20054;-53
2022/01/11 11:42:50;;;;;;;1.70;1.13;;;;;;;1.25;91.18;94888.06;5064085;28;20047;-51
2022/01/11 11:45:23;;;;;;;3.28;1.70;;;;;;;1.14;91.37;94885.91;5064132;28;20044;-52
2022/01/11 11:47:51;;;;;;;2.38;0.98;;;;;;;1.07;90.91;94890.09;5064134;28;20454;-51
2022/01/11 11:50:22;;;;;;;5.63;3.65;;;;;;;1.00;91.03;94894.31;5064613;28;20041;-54